sensor_id;sensor_type;location;lat;lon;timestamp;P1;durP1;ratioP1;P2;durP2;ratioP2
42450;SDS011;28080;51.138;17.170;2024-03-23T01:00:42;24.90;;;13.90;;
42450;SDS011;28080;51.138;17.170;2024-03-23T01:10:57;31.10;;;14.90;;
42450;SDS011;28080;51.138;17.170;2024-03-23T01:21:23;29.60;;;15.30;;
42450;SDS011;28080;51.138;17.170;2024-03-23T01:31:47;27.20;;;13.50;;
42450;SDS011;28080;51.138;17.170;2024-03-23T01:41:55;22.70;;;11.50;;
42450;SDS011;28080;51.138;17.170;2024-03-23T01:52:20;26.50;;;12.40;;
42450;SDS011;28080;51.138;17.170;2024-03-23T02:02:45;23.00;;;12.40;;
42450;SDS011;28080;51.138;17.170;2024-03-23T02:13:10;28.90;;;12.40;;
42450;SDS011;28080;51.138;17.170;2024-03-23T02:23:18;20.40;;;11.20;;
42450;SDS011;28080;51.138;17.170;2024-03-23T02:33:43;20.10;;;11.20;;
42450;SDS011;28080;51.138;17.170;2024-03-23T02:44:08;24.50;;;12.90;;
42450;SDS011;28080;51.138;17.170;2024-03-23T02:54:16;23.20;;;13.20;;
42450;SDS011;28080;51.138;17.170;2024-03-23T03:04:41;24.30;;;13.40;;
42450;SDS011;28080;51.138;17.170;2024-03-23T03:14:57;27.30;;;14.10;;
42450;SDS011;28080;51.138;17.170;2024-03-23T03:25:22;23.50;;;12.40;;
42450;SDS011;28080;51.138;17.170;2024-03-23T03:35:29;23.50;;;12.30;;
42450;SDS011;28080;51.138;17.170;2024-03-23T03:45:54;21.50;;;11.80;;
42450;SDS011;28080;51.138;17.170;2024-03-23T03:56:20;21.20;;;11.30;;
42450;SDS011;28080;51.138;17.170;2024-03-23T04:06:45;20.90;;;11.30;;
42450;SDS011;28080;51.138;17.170;2024-03-23T04:17:10;21.80;;;10.50;;
42450;SDS011;28080;51.138;17.170;2024-03-23T04:27:31;19.80;;;11.20;;
42450;SDS011;28080;51.138;17.170;2024-03-23T04:37:56;23.00;;;12.50;;
42450;SDS011;28080;51.138;17.170;2024-03-23T04:48:22;24.10;;;14.20;;
42450;SDS011;28080;51.138;17.170;2024-03-23T04:58:47;22.20;;;12.40;;
42450;SDS011;28080;51.138;17.170;2024-03-23T05:09:11;22.30;;;13.20;;
42450;SDS011;28080;51.138;17.170;2024-03-23T05:19:36;23.90;;;13.50;;
42450;SDS011;28080;51.138;17.170;2024-03-23T05:30:01;23.50;;;14.20;;
42450;SDS011;28080;51.138;17.170;2024-03-23T05:40:27;22.50;;;13.10;;
42450;SDS011;28080;51.138;17.170;2024-03-23T05:50:52;22.10;;;12.70;;
42450;SDS011;28080;51.138;17.170;2024-03-23T06:01:19;28.50;;;13.70;;
42450;SDS011;28080;51.138;17.170;2024-03-23T06:11:44;50.80;;;18.60;;
42450;SDS011;28080;51.138;17.170;2024-03-23T06:22:09;31.30;;;15.40;;
42450;SDS011;28080;51.138;17.170;2024-03-23T06:32:34;36.50;;;14.40;;
42450;SDS011;28080;51.138;17.170;2024-03-23T06:42:58;26.90;;;13.90;;
42450;SDS011;28080;51.138;17.170;2024-03-23T06:53:23;31.20;;;14.10;;
42450;SDS011;28080;51.138;17.170;2024-03-23T07:03:49;30.60;;;14.90;;
42450;SDS011;28080;51.138;17.170;2024-03-23T07:14:14;25.50;;;12.40;;
42450;SDS011;28080;51.138;17.170;2024-03-23T07:24:41;22.30;;;13.30;;
42450;SDS011;28080;51.138;17.170;2024-03-23T07:35:07;20.50;;;12.80;;
42450;SDS011;28080;51.138;17.170;2024-03-23T07:45:32;18.50;;;10.90;;
42450;SDS011;28080;51.138;17.170;2024-03-23T07:55:58;16.10;;;11.30;;
42450;SDS011;28080;51.138;17.170;2024-03-23T08:16:49;26.40;;;14.70;;
42450;SDS011;28080;51.138;17.170;2024-03-23T08:27:15;19.70;;;12.60;;
42450;SDS011;28080;51.138;17.170;2024-03-23T08:37:40;19.70;;;11.50;;
42450;SDS011;28080;51.138;17.170;2024-03-23T08:47:45;16.30;;;10.80;;
42450;SDS011;28080;51.138;17.170;2024-03-23T08:58:09;16.30;;;9.10;;
42450;SDS011;28080;51.138;17.170;2024-03-23T09:08:35;13.70;;;10.50;;
42450;SDS011;28080;51.138;17.170;2024-03-23T09:19:01;14.20;;;9.40;;
42450;SDS011;28080;51.138;17.170;2024-03-23T09:29:26;14.10;;;8.10;;
42450;SDS011;28080;51.138;17.170;2024-03-23T09:39:51;15.60;;;9.90;;
42450;SDS011;28080;51.138;17.170;2024-03-23T09:50:16;13.40;;;9.70;;
42450;SDS011;28080;51.138;17.170;2024-03-23T10:00:41;14.70;;;9.40;;
42450;SDS011;28080;51.138;17.170;2024-03-23T10:11:15;13.60;;;8.50;;
42450;SDS011;28080;51.138;17.170;2024-03-23T10:21:44;12.50;;;8.30;;
42450;SDS011;28080;51.138;17.170;2024-03-23T10:32:17;14.20;;;8.30;;
42450;SDS011;28080;51.138;17.170;2024-03-23T10:42:24;12.50;;;8.70;;
42450;SDS011;28080;51.138;17.170;2024-03-23T10:52:49;12.90;;;8.90;;
42450;SDS011;28080;51.138;17.170;2024-03-23T11:03:33;13.40;;;9.10;;
42450;SDS011;28080;51.138;17.170;2024-03-23T11:13:42;15.50;;;9.90;;
42450;SDS011;28080;51.138;17.170;2024-03-23T11:24:16;15.70;;;11.10;;
42450;SDS011;28080;51.138;17.170;2024-03-23T11:34:42;23.20;;;17.60;;
42450;SDS011;28080;51.138;17.170;2024-03-23T11:45:09;52.10;;;37.50;;
42450;SDS011;28080;51.138;17.170;2024-03-23T11:55:40;15.80;;;12.00;;
42450;SDS011;28080;51.138;17.170;2024-03-23T12:06:08;12.10;;;7.80;;
42450;SDS011;28080;51.138;17.170;2024-03-23T12:16:33;16.50;;;4.90;;
42450;SDS011;28080;51.138;17.170;2024-03-23T12:27:00;7.00;;;4.20;;
42450;SDS011;28080;51.138;17.170;2024-03-23T12:37:17;7.10;;;3.50;;
42450;SDS011;28080;51.138;17.170;2024-03-23T12:47:22;7.30;;;4.50;;
42450;SDS011;28080;51.138;17.170;2024-03-23T12:57:29;6.20;;;4.50;;
42450;SDS011;28080;51.138;17.170;2024-03-23T13:07:35;8.40;;;3.50;;
42450;SDS011;28080;51.138;17.170;2024-03-23T13:17:52;8.00;;;4.90;;
42450;SDS011;28080;51.138;17.170;2024-03-23T13:28:07;6.30;;;4.00;;
42450;SDS011;28080;51.138;17.170;2024-03-23T13:38:14;9.50;;;5.50;;
42450;SDS011;28080;51.138;17.170;2024-03-23T13:48:36;10.20;;;4.40;;
42450;SDS011;28080;51.138;17.170;2024-03-23T13:59:02;5.60;;;3.90;;
42450;SDS011;28080;51.138;17.170;2024-03-23T14:09:17;4.80;;;2.40;;
42450;SDS011;28080;51.138;17.170;2024-03-23T14:19:45;4.20;;;1.90;;
42450;SDS011;28080;51.138;17.170;2024-03-23T14:30:10;2.70;;;0.90;;
42450;SDS011;28080;51.138;17.170;2024-03-23T14:40:36;1.40;;;0.50;;
42450;SDS011;28080;51.138;17.170;2024-03-23T14:50:43;2.00;;;0.50;;
42450;SDS011;28080;51.138;17.170;2024-03-23T15:01:08;2.00;;;0.40;;
42450;SDS011;28080;51.138;17.170;2024-03-23T15:11:33;2.00;;;0.30;;
42450;SDS011;28080;51.138;17.170;2024-03-23T15:21:58;0.80;;;0.50;;
42450;SDS011;28080;51.138;17.170;2024-03-23T15:32:23;1.30;;;0.60;;
42450;SDS011;28080;51.138;17.170;2024-03-23T15:42:43;1.00;;;0.70;;
42450;SDS011;28080;51.138;17.170;2024-03-23T15:53:08;1.60;;;1.00;;
42450;SDS011;28080;51.138;17.170;2024-03-23T16:03:33;2.30;;;0.90;;
42450;SDS011;28080;51.138;17.170;2024-03-23T16:13:58;1.80;;;1.10;;
42450;SDS011;28080;51.138;17.170;2024-03-23T16:24:23;1.20;;;1.00;;
42450;SDS011;28080;51.138;17.170;2024-03-23T16:34:48;1.00;;;0.90;;
42450;SDS011;28080;51.138;17.170;2024-03-23T16:45:14;2.00;;;1.10;;
42450;SDS011;28080;51.138;17.170;2024-03-23T16:55:39;2.80;;;1.60;;
42450;SDS011;28080;51.138;17.170;2024-03-23T17:05:53;3.70;;;1.70;;
42450;SDS011;28080;51.138;17.170;2024-03-23T17:16:08;3.60;;;2.30;;
42450;SDS011;28080;51.138;17.170;2024-03-23T17:26:34;3.80;;;2.20;;
42450;SDS011;28080;51.138;17.170;2024-03-23T17:36:59;3.70;;;2.20;;
42450;SDS011;28080;51.138;17.170;2024-03-23T17:47:24;5.10;;;1.80;;
42450;SDS011;28080;51.138;17.170;2024-03-23T17:57:50;4.40;;;2.40;;
42450;SDS011;28080;51.138;17.170;2024-03-23T18:08:14;3.50;;;2.50;;
42450;SDS011;28080;51.138;17.170;2024-03-23T18:18:39;4.80;;;2.10;;
42450;SDS011;28080;51.138;17.170;2024-03-23T18:29:04;4.80;;;1.80;;
42450;SDS011;28080;51.138;17.170;2024-03-23T18:39:12;3.80;;;2.30;;
42450;SDS011;28080;51.138;17.170;2024-03-23T18:49:37;6.40;;;2.60;;
42450;SDS011;28080;51.138;17.170;2024-03-23T19:00:02;4.00;;;2.40;;
42450;SDS011;28080;51.138;17.170;2024-03-23T19:10:30;3.40;;;2.80;;
42450;SDS011;28080;51.138;17.170;2024-03-23T19:20:55;7.20;;;2.80;;
42450;SDS011;28080;51.138;17.170;2024-03-23T19:31:21;8.50;;;3.10;;
42450;SDS011;28080;51.138;17.170;2024-03-23T19:41:47;5.60;;;2.60;;
42450;SDS011;28080;51.138;17.170;2024-03-23T19:52:12;8.00;;;3.40;;
42450;SDS011;28080;51.138;17.170;2024-03-23T20:02:36;7.30;;;3.10;;
42450;SDS011;28080;51.138;17.170;2024-03-23T20:13:03;7.10;;;3.40;;
42450;SDS011;28080;51.138;17.170;2024-03-23T20:23:11;10.10;;;4.50;;
42450;SDS011;28080;51.138;17.170;2024-03-23T20:33:36;10.40;;;4.40;;
42450;SDS011;28080;51.138;17.170;2024-03-23T20:44:01;12.90;;;6.00;;
42450;SDS011;28080;51.138;17.170;2024-03-23T20:54:26;11.00;;;5.60;;
42450;SDS011;28080;51.138;17.170;2024-03-23T21:04:51;14.20;;;6.40;;
42450;SDS011;28080;51.138;17.170;2024-03-23T21:15:15;16.60;;;8.20;;
42450;SDS011;28080;51.138;17.170;2024-03-23T21:25:40;17.60;;;8.10;;
42450;SDS011;28080;51.138;17.170;2024-03-23T21:36:07;36.80;;;15.50;;
42450;SDS011;28080;51.138;17.170;2024-03-23T21:46:32;27.60;;;12.60;;
42450;SDS011;28080;51.138;17.170;2024-03-23T21:56:57;18.80;;;8.90;;
42450;SDS011;28080;51.138;17.170;2024-03-23T22:07:22;17.60;;;8.50;;
42450;SDS011;28080;51.138;17.170;2024-03-23T22:17:56;20.40;;;9.40;;
42450;SDS011;28080;51.138;17.170;2024-03-23T22:28:23;19.40;;;9.50;;
42450;SDS011;28080;51.138;17.170;2024-03-23T22:38:49;22.30;;;10.80;;
42450;SDS011;28080;51.138;17.170;2024-03-23T22:49:14;18.80;;;8.90;;
42450;SDS011;28080;51.138;17.170;2024-03-23T22:59:40;15.10;;;6.20;;
42450;SDS011;28080;51.138;17.170;2024-03-23T23:10:05;14.50;;;6.60;;
42450;SDS011;28080;51.138;17.170;2024-03-23T23:20:32;9.80;;;4.60;;
42450;SDS011;28080;51.138;17.170;2024-03-23T23:30:57;11.60;;;6.00;;
42450;SDS011;28080;51.138;17.170;2024-03-23T23:41:06;15.70;;;7.00;;
42450;SDS011;28080;51.138;17.170;2024-03-23T23:51:31;17.60;;;6.80;;
